createdAt,value
2024-01-16T00:01:59.805Z,16.60
2024-01-16T00:06:55.631Z,14.75
2024-01-16T00:09:22.865Z,13.48
2024-01-16T00:14:17.067Z,14.65
2024-01-16T00:16:47.884Z,13.95
2024-01-16T00:19:15.406Z,16.27
2024-01-16T00:21:43.728Z,12.25
2024-01-16T00:24:10.975Z,14.98
2024-01-16T00:26:38.276Z,13.20
2024-01-16T00:29:07.862Z,14.63
2024-01-16T00:31:35.373Z,14.38
2024-01-16T00:34:02.810Z,15.63
2024-01-16T00:36:30.193Z,13.98
2024-01-16T00:38:57.701Z,13.90
2024-01-16T00:41:25.361Z,12.82
2024-01-16T00:43:52.696Z,13.93
2024-01-16T00:46:20.009Z,15.27
2024-01-16T00:48:47.356Z,17.25
2024-01-16T00:51:14.501Z,15.55
2024-01-16T00:56:10.273Z,14.30
2024-01-16T00:58:37.629Z,15.52
2024-01-16T01:01:05.265Z,15.20
2024-01-16T01:03:33.600Z,12.85
2024-01-16T01:06:02.220Z,13.32
2024-01-16T01:08:29.734Z,15.35
2024-01-16T01:10:57.109Z,15.80
2024-01-16T01:13:26.451Z,16.45
2024-01-16T01:15:53.877Z,15.48
2024-01-16T01:18:21.754Z,15.48
2024-01-16T01:20:49.262Z,12.73
2024-01-16T01:23:19.220Z,14.65
2024-01-16T01:25:46.733Z,14.85
2024-01-16T01:28:13.944Z,16.13
2024-01-16T01:33:08.800Z,14.25
2024-01-16T01:35:36.188Z,13.55
2024-01-16T01:38:03.466Z,12.85
2024-01-16T01:40:33.732Z,14.38
2024-01-16T01:45:44.921Z,12.68
2024-01-16T01:50:40.063Z,14.23
2024-01-16T01:53:07.288Z,12.52
2024-01-16T01:55:34.799Z,13.20
2024-01-16T01:58:05.460Z,14.57
2024-01-16T02:00:33.191Z,13.43
2024-01-16T02:03:01.517Z,12.23
2024-01-16T02:05:30.130Z,11.65
2024-01-16T02:07:57.636Z,13.27
2024-01-16T02:10:25.784Z,13.98
2024-01-16T02:12:52.956Z,13.88
2024-01-16T02:15:20.210Z,12.57
2024-01-16T02:17:49.256Z,11.52
2024-01-16T02:20:36.988Z,14.02
2024-01-16T02:23:05.738Z,13.30
2024-01-16T02:25:33.277Z,12.45
2024-01-16T02:28:01.928Z,13.32
2024-01-16T02:30:29.064Z,10.88
2024-01-16T02:35:23.637Z,11.48
2024-01-16T02:37:50.939Z,13.13
2024-01-16T02:42:46.237Z,10.70
2024-01-16T02:45:13.784Z,14.13
2024-01-16T02:47:41.896Z,11.80
2024-01-16T02:50:11.141Z,11.43
2024-01-16T02:52:38.537Z,13.80
2024-01-16T02:55:06.246Z,12.25
2024-01-16T02:57:33.544Z,11.07
2024-01-16T03:00:00.686Z,11.25
2024-01-16T03:04:55.058Z,14.50
2024-01-16T03:09:49.213Z,13.32
2024-01-16T03:12:16.501Z,11.95
2024-01-16T03:14:43.877Z,11.02
2024-01-16T03:17:11.107Z,13.55
2024-01-16T03:19:38.483Z,12.23
2024-01-16T03:22:05.727Z,13.00
2024-01-16T03:24:32.877Z,12.63
2024-01-16T03:29:27.671Z,13.83
2024-01-16T03:31:55.014Z,14.40
2024-01-16T03:34:22.494Z,14.18
2024-01-16T03:36:49.690Z,13.73
2024-01-16T03:41:43.782Z,12.43
2024-01-16T03:44:11.092Z,14.27
2024-01-16T03:46:38.728Z,12.20
2024-01-16T03:49:05.968Z,13.30
2024-01-16T03:51:33.667Z,14.52
2024-01-16T03:54:00.823Z,13.63
2024-01-16T03:56:28.137Z,13.85
2024-01-16T03:58:55.549Z,11.70
2024-01-16T04:01:38.395Z,15.70
2024-01-16T04:04:08.643Z,15.68
2024-01-16T04:06:36.183Z,13.30
2024-01-16T04:09:04.377Z,13.65
2024-01-16T04:11:31.727Z,13.13
2024-01-16T04:13:58.959Z,15.68
2024-01-16T04:16:29.825Z,15.10
2024-01-16T04:19:00.767Z,15.27
2024-01-16T04:21:28.841Z,14.82
2024-01-16T04:23:58.755Z,15.73
2024-01-16T04:26:28.367Z,13.38
2024-01-16T04:28:55.813Z,15.93
2024-01-16T04:31:23.749Z,13.55
2024-01-16T04:33:51.556Z,15.77
2024-01-16T04:36:18.977Z,14.77
2024-01-16T04:38:46.254Z,16.35
2024-01-16T04:41:13.585Z,14.57
2024-01-16T04:43:40.987Z,12.57
2024-01-16T04:46:08.271Z,11.70
2024-01-16T04:48:35.514Z,16.10
2024-01-16T04:51:16.099Z,12.82
2024-01-16T04:53:43.562Z,14.65
2024-01-16T04:56:11.145Z,16.17
2024-01-16T04:58:40.968Z,16.35
2024-01-16T05:01:08.224Z,16.13
2024-01-16T05:03:35.868Z,16.92
2024-01-16T05:06:04.627Z,14.02
2024-01-16T05:08:37.344Z,15.20
2024-01-16T05:11:04.580Z,16.90
2024-01-16T05:13:31.885Z,15.25
2024-01-16T05:15:59.318Z,17.42
2024-01-16T05:18:26.962Z,16.65
2024-01-16T05:20:56.125Z,15.85
2024-01-16T05:23:24.187Z,15.07
2024-01-16T05:25:51.784Z,16.90
2024-01-16T05:28:19.216Z,18.30
2024-01-16T05:30:46.420Z,15.98
2024-01-16T05:33:14.604Z,17.58
2024-01-16T05:35:42.111Z,17.60
2024-01-16T05:38:09.605Z,16.95
2024-01-16T05:40:38.365Z,15.50
2024-01-16T05:43:05.853Z,16.73
2024-01-16T05:45:33.603Z,16.60
2024-01-16T05:48:01.533Z,15.73
2024-01-16T05:50:29.070Z,16.08
2024-01-16T05:52:56.434Z,16.27
2024-01-16T05:57:50.775Z,16.30
2024-01-16T06:00:19.545Z,15.48
2024-01-16T06:02:47.055Z,15.65
2024-01-16T06:05:15.469Z,14.40
2024-01-16T06:07:42.805Z,15.93
2024-01-16T06:10:10.728Z,15.68
2024-01-16T06:12:38.387Z,13.38
2024-01-16T06:15:06.056Z,13.70
2024-01-16T06:17:33.579Z,15.57
2024-01-16T06:20:00.992Z,14.90
2024-01-16T06:22:33.152Z,17.52
2024-01-16T06:25:00.542Z,15.73
2024-01-16T06:29:54.781Z,14.60
2024-01-16T06:32:22.164Z,14.82
2024-01-16T06:34:49.603Z,16.75
2024-01-16T06:37:17.102Z,15.23
2024-01-16T06:39:44.317Z,15.20
2024-01-16T06:42:11.859Z,16.48
2024-01-16T06:44:39.404Z,17.95
2024-01-16T06:47:07.012Z,18.90
2024-01-16T06:49:34.320Z,18.00
2024-01-16T06:52:01.669Z,17.98
2024-01-16T06:54:29.270Z,16.25
2024-01-16T06:56:56.626Z,18.52
2024-01-16T06:59:24.123Z,17.33
2024-01-16T07:01:51.312Z,19.75
2024-01-16T07:06:45.724Z,15.63
2024-01-16T07:11:44.232Z,17.58
2024-01-16T07:14:12.052Z,15.27
2024-01-16T07:16:39.589Z,18.83
2024-01-16T07:19:07.068Z,18.27
2024-01-16T07:21:35.043Z,18.50
2024-01-16T07:24:02.520Z,15.00
2024-01-16T07:26:31.004Z,18.63
2024-01-16T07:28:58.514Z,17.67
2024-01-16T07:31:26.767Z,19.35
2024-01-16T07:33:54.280Z,16.33
2024-01-16T07:36:21.683Z,18.05
2024-01-16T07:38:49.326Z,17.45
2024-01-16T07:41:16.910Z,19.55
2024-01-16T07:43:46.686Z,16.60
2024-01-16T07:46:15.728Z,19.48
2024-01-16T07:48:43.581Z,18.73
2024-01-16T07:51:14.182Z,19.15
2024-01-16T07:53:41.603Z,18.77
2024-01-16T07:56:08.909Z,15.45
2024-01-16T07:58:36.264Z,12.82
2024-01-16T08:01:04.099Z,14.77
2024-01-16T08:03:31.816Z,10.95
2024-01-16T08:06:00.683Z,12.43
2024-01-16T08:08:28.356Z,15.55
2024-01-16T08:10:57.688Z,14.55
2024-01-16T08:13:25.158Z,13.68
2024-01-16T08:15:52.542Z,12.52
2024-01-16T08:18:20.063Z,15.05
2024-01-16T08:20:47.513Z,15.30
2024-01-16T08:23:14.813Z,19.92
2024-01-16T08:25:42.265Z,15.10
2024-01-16T08:28:10.095Z,16.08
2024-01-16T08:30:54.469Z,15.07
2024-01-16T08:33:37.224Z,16.25
2024-01-16T08:39:19.709Z,16.90
2024-01-16T10:40:06.073Z,16.02
2024-01-16T10:42:34.084Z,12.50
2024-01-16T10:45:01.473Z,15.98
2024-01-16T10:47:32.224Z,15.88
2024-01-16T10:49:59.671Z,14.95
2024-01-16T10:52:30.717Z,16.70
2024-01-16T10:55:04.323Z,17.17
2024-01-16T10:57:34.038Z,16.00
2024-01-16T11:00:07.819Z,15.73
2024-01-16T11:02:50.747Z,15.05
2024-01-16T11:05:23.839Z,16.35
2024-01-16T11:08:01.732Z,15.05
2024-01-16T11:10:34.767Z,17.63
2024-01-16T11:13:06.903Z,15.85
2024-01-16T11:15:44.979Z,16.45
2024-01-16T11:18:20.548Z,14.95
2024-01-16T11:21:02.425Z,17.60
2024-01-16T11:23:34.433Z,15.02
2024-01-16T11:26:25.006Z,16.00
2024-01-16T11:28:52.512Z,17.55
2024-01-16T11:31:31.049Z,16.30
2024-01-16T11:33:58.953Z,15.13
2024-01-16T11:36:57.944Z,14.77
2024-01-16T11:39:29.594Z,14.82
2024-01-16T11:42:04.229Z,13.23
2024-01-16T11:44:57.072Z,16.38
2024-01-16T11:47:25.795Z,14.63
2024-01-16T11:50:14.900Z,16.13
2024-01-16T11:52:46.685Z,11.88
2024-01-16T11:55:38.002Z,15.90
2024-01-16T11:58:23.924Z,14.95
2024-01-16T12:00:55.169Z,17.13
2024-01-16T12:03:48.483Z,15.35
2024-01-16T12:06:21.058Z,16.95
2024-01-16T12:08:51.487Z,16.23
2024-01-16T12:11:30.249Z,15.90
2024-01-16T12:14:10.791Z,16.15
2024-01-16T12:19:22.288Z,14.45
2024-01-16T12:21:52.289Z,15.40
2024-01-16T12:24:19.945Z,17.80
2024-01-16T12:26:48.851Z,14.82
2024-01-16T12:29:19.831Z,15.98
2024-01-16T12:31:48.670Z,15.82
2024-01-16T12:34:27.132Z,13.32
2024-01-16T12:37:07.868Z,16.27
2024-01-16T12:39:39.212Z,16.27
2024-01-16T12:42:07.259Z,14.05
2024-01-16T12:44:50.268Z,16.02
2024-01-16T12:47:20.660Z,13.20
2024-01-16T12:49:48.611Z,15.05
2024-01-16T12:52:19.348Z,15.95
2024-01-16T12:54:56.811Z,15.82
2024-01-16T12:57:24.713Z,16.15
2024-01-16T12:59:54.412Z,15.70
2024-01-16T13:02:24.428Z,15.80
2024-01-16T13:05:05.520Z,16.00
2024-01-16T13:07:35.947Z,15.00
2024-01-16T13:10:14.133Z,15.85
2024-01-16T13:12:49.013Z,17.17
2024-01-16T13:15:20.564Z,17.48
2024-01-16T13:17:49.526Z,17.50
2024-01-16T13:20:17.795Z,17.52
2024-01-16T13:22:47.832Z,18.92
2024-01-16T13:25:16.663Z,19.27
2024-01-16T13:27:47.257Z,19.33
2024-01-16T13:30:17.444Z,18.80
2024-01-16T13:32:45.163Z,16.88
2024-01-16T13:35:15.993Z,18.25
2024-01-16T13:37:48.437Z,17.65
2024-01-16T13:40:17.166Z,18.60
2024-01-16T13:42:45.221Z,16.25
2024-01-16T13:45:18.359Z,17.35
2024-01-16T13:47:48.193Z,15.30
2024-01-16T13:53:07.861Z,17.38
2024-01-16T13:55:35.139Z,17.70
2024-01-16T13:58:05.608Z,15.88
2024-01-16T14:00:33.059Z,17.88
2024-01-16T14:03:02.184Z,16.05
2024-01-16T14:08:03.612Z,16.38
2024-01-16T14:10:31.095Z,14.50
2024-01-16T14:13:03.050Z,18.40
2024-01-16T14:15:31.658Z,17.05
2024-01-16T14:17:59.843Z,16.60
2024-01-16T14:20:30.607Z,16.63
2024-01-16T14:23:01.117Z,17.45
2024-01-16T14:25:41.582Z,19.52
2024-01-16T14:28:15.353Z,18.15
2024-01-16T14:30:51.524Z,18.85
2024-01-16T14:33:19.384Z,18.55
2024-01-16T14:35:47.076Z,18.95
2024-01-16T14:38:14.603Z,18.75
2024-01-16T14:43:27.244Z,17.13
2024-01-16T14:45:59.707Z,14.63
2024-01-16T14:48:28.140Z,18.75
2024-01-16T14:51:03.831Z,18.50
2024-01-16T14:53:32.884Z,17.67
2024-01-16T14:56:07.214Z,18.67
2024-01-16T14:58:34.821Z,19.90
2024-01-16T15:01:02.846Z,18.98
2024-01-16T15:03:30.808Z,19.75
2024-01-16T15:05:59.591Z,20.15
2024-01-16T15:08:28.128Z,20.75
2024-01-16T15:11:00.919Z,19.67
2024-01-16T15:13:37.874Z,17.20
2024-01-16T15:16:05.771Z,17.70
2024-01-16T15:18:34.040Z,18.67
2024-01-16T15:21:05.438Z,19.65
2024-01-16T15:23:37.771Z,20.40
2024-01-16T15:26:08.746Z,20.17
2024-01-16T15:28:46.255Z,19.23
2024-01-16T15:31:22.951Z,18.65
2024-01-16T15:33:50.808Z,18.38
2024-01-16T15:36:20.194Z,19.40
2024-01-16T15:38:51.630Z,19.00
2024-01-16T15:41:22.173Z,17.67
2024-01-16T15:46:31.500Z,21.30
2024-01-16T15:48:59.664Z,17.65
2024-01-16T15:51:27.235Z,19.20
2024-01-16T15:53:54.651Z,19.40
2024-01-16T15:56:22.511Z,20.80
2024-01-16T15:58:57.867Z,20.55
2024-01-16T16:01:26.839Z,18.48
2024-01-16T16:03:56.618Z,19.50
2024-01-16T16:06:29.258Z,20.20
2024-01-16T16:09:01.158Z,22.95
2024-01-16T16:11:50.811Z,20.20
2024-01-16T16:14:21.309Z,17.23
2024-01-16T16:16:55.522Z,24.05
2024-01-16T16:19:29.662Z,23.25
2024-01-16T16:22:01.853Z,20.58
2024-01-16T16:24:39.163Z,22.80
2024-01-16T16:27:33.201Z,16.50
2024-01-16T16:30:14.130Z,22.90
2024-01-16T16:35:33.720Z,20.00
2024-01-16T16:38:03.854Z,21.50
2024-01-16T16:40:34.170Z,24.42
2024-01-16T16:43:08.042Z,23.48
2024-01-16T16:45:42.304Z,21.75
2024-01-16T16:48:25.065Z,23.20
2024-01-16T16:50:53.465Z,21.80
2024-01-16T16:53:28.294Z,14.38
2024-01-16T16:56:00.985Z,21.25
2024-01-16T16:58:37.689Z,20.50
2024-01-16T17:01:08.081Z,21.55
2024-01-16T17:03:44.519Z,19.70
2024-01-16T17:06:13.874Z,19.70
2024-01-16T17:08:54.261Z,20.63
2024-01-16T17:11:29.075Z,21.88
2024-01-16T17:14:17.866Z,22.05
2024-01-16T17:16:49.700Z,21.58
2024-01-16T17:19:34.047Z,21.33
2024-01-16T17:24:52.441Z,20.35
2024-01-16T17:27:27.743Z,19.98
2024-01-16T17:30:04.516Z,18.30
2024-01-16T17:32:41.249Z,19.30
2024-01-16T17:41:06.962Z,17.92
2024-01-16T17:43:38.118Z,19.15
2024-01-16T17:46:10.365Z,15.80
2024-01-16T17:48:47.561Z,16.33
2024-01-16T17:51:22.730Z,18.48
2024-01-16T17:53:54.705Z,19.92
2024-01-16T17:56:39.135Z,17.10
2024-01-16T18:02:32.554Z,17.50
2024-01-16T18:05:36.049Z,15.63
2024-01-16T18:08:51.524Z,17.55
2024-01-16T18:11:34.626Z,19.00
2024-01-16T18:14:11.209Z,17.50
2024-01-16T18:16:51.680Z,19.30
2024-01-16T18:19:49.697Z,15.50
2024-01-16T18:22:30.144Z,19.40
2024-01-16T18:24:58.482Z,15.15
2024-01-16T18:28:06.085Z,15.70
2024-01-16T18:30:36.815Z,19.08
2024-01-16T18:37:06.449Z,14.45
2024-01-16T18:45:12.746Z,18.67
2024-01-16T18:47:54.522Z,22.42
2024-01-16T18:50:23.377Z,24.65
2024-01-16T18:53:07.188Z,23.85
2024-01-16T18:55:39.551Z,25.38
2024-01-16T18:58:54.782Z,26.42
2024-01-16T19:04:33.767Z,19.48
2024-01-16T19:07:19.898Z,26.05
2024-01-16T19:13:02.161Z,25.23
2024-01-16T19:19:01.091Z,21.73
2024-01-16T19:21:31.739Z,20.02
2024-01-16T19:24:19.566Z,21.00
2024-01-16T19:26:51.057Z,15.73
2024-01-16T19:29:23.132Z,17.10
2024-01-16T19:37:35.634Z,17.25
2024-01-16T19:40:22.729Z,20.33
2024-01-16T19:42:58.863Z,20.35
2024-01-16T19:45:40.484Z,18.27
2024-01-16T19:48:15.611Z,21.42
2024-01-16T19:50:53.148Z,20.48
2024-01-16T19:53:31.980Z,19.52
2024-01-16T19:56:03.254Z,26.02
2024-01-16T19:58:31.929Z,18.65
2024-01-16T20:01:05.273Z,17.38
2024-01-16T20:03:37.510Z,19.65
2024-01-16T20:06:22.827Z,20.38
2024-01-16T20:08:53.319Z,19.95
2024-01-16T20:11:31.389Z,21.02
2024-01-16T20:14:12.933Z,16.48
2024-01-16T20:16:51.308Z,16.00
2024-01-16T20:19:31.746Z,23.95
2024-01-16T20:22:14.066Z,21.60
2024-01-16T20:27:27.757Z,22.35
2024-01-16T20:29:56.485Z,15.40
2024-01-16T20:32:26.269Z,15.18
2024-01-16T20:34:57.086Z,21.40
2024-01-16T20:37:28.661Z,18.77
2024-01-16T20:40:02.966Z,18.55
2024-01-16T20:42:38.089Z,15.73
2024-01-16T20:48:45.374Z,19.77
2024-01-16T20:51:20.024Z,18.55
2024-01-16T20:56:36.758Z,17.85
2024-01-16T20:59:38.001Z,16.20
2024-01-16T21:02:07.809Z,12.20
2024-01-16T21:04:47.075Z,14.82
2024-01-16T21:07:24.077Z,16.27
2024-01-16T21:09:51.534Z,15.35
2024-01-16T21:26:22.821Z,14.85
2024-01-16T21:28:54.481Z,16.75
2024-01-16T21:32:13.261Z,14.50
2024-01-16T21:34:50.294Z,13.85
2024-01-16T21:37:24.812Z,14.32
2024-01-16T21:39:54.398Z,15.70
2024-01-16T21:42:33.574Z,13.45
2024-01-16T21:48:09.288Z,14.52
2024-01-16T21:50:54.242Z,13.02
2024-01-16T22:51:00.299Z,9.95
2024-01-16T22:53:42.153Z,9.23
2024-01-16T23:03:32.426Z,9.60
2024-01-16T23:06:04.212Z,10.73
2024-01-16T23:14:06.862Z,8.52
2024-01-16T23:22:24.004Z,10.23
2024-01-16T23:24:51.738Z,9.48
2024-01-16T23:37:35.419Z,10.80
2024-01-16T23:40:02.916Z,10.90
2024-01-16T23:42:35.669Z,10.95
2024-01-16T23:45:07.983Z,10.65
2024-01-16T23:47:54.854Z,10.27
2024-01-16T23:50:26.887Z,10.02
2024-01-16T23:52:54.667Z,7.65
2024-01-16T23:58:10.372Z,9.07
